^^
Station Historical Data
 
Daily Summary for August 23, 2017 Units:  English    Metric   Both
« Previous Day
Next Day »
Daily Weekly Monthly Yearly Custom
  Current: High: Low: Average:
Temperature: 66.0 °F 82.6 °F 62.8 °F 72.1 °F
Dew Point: 63.9 °F 72.3 °F 62.2 °F 66 °F
Humidity: 93% 99% 61% 83%
Wind Speed: 0.0mph 4.0mph 0.0mph 0.1mph
Wind Gust: 0.0mph 4.0mph - -
WindCalm - - SE
Pressure: 29.98 in 30.06 in 29.92 in -
Precipitation: 0.00 in      
Historical Graphs
 
 
Tabular Data for August 23, 2017
Time Temperature Dew Point Pressure Wind Wind Speed Wind Gust Humidity Rainfall Rate (Hourly)
00:01 67.3 °F 65.1 °F 30.06 in Calm     93% 0.00 in
00:06 67.3 °F 65.1 °F 30.06 in Calm     93% 0.00 in
00:11 67.1 °F 64.9 °F 30.06 in Calm     93% 0.00 in
00:16 67.1 °F 64.9 °F 30.06 in Calm     93% 0.00 in
00:21 66.9 °F 64.8 °F 30.05 in Calm     93% 0.00 in
00:26 66.7 °F 64.6 °F 30.05 in Calm     93% 0.00 in
00:31 66.6 °F 64.8 °F 30.05 in Calm     94% 0.00 in
00:36 66.4 °F 64.6 °F 30.05 in Calm     94% 0.00 in
00:41 66.4 °F 64.6 °F 30.05 in Calm   1.0 mph 94% 0.00 in
00:47 66.2 °F 64.4 °F 30.06 in Calm     94% 0.00 in
00:52 66.0 °F 64.6 °F 30.06 in Calm     95% 0.00 in
00:57 65.8 °F 64.4 °F 30.06 in Calm     95% 0.00 in
01:02 65.7 °F 64.2 °F 30.05 in Calm     95% 0.00 in
01:07 65.7 °F 64.4 °F 30.06 in Calm     96% 0.00 in
01:12 65.7 °F 64.4 °F 30.06 in Calm   1.0 mph 96% 0.00 in
01:17 65.7 °F 64.4 °F 30.06 in Calm     96% 0.00 in
01:22 65.5 °F 64.2 °F 30.06 in Calm     96% 0.00 in
01:27 65.3 °F 64.0 °F 30.06 in Calm     96% 0.00 in
01:32 65.1 °F 64.0 °F 30.05 in Calm     96% 0.00 in
01:37 65.1 °F 64.0 °F 30.05 in Calm     96% 0.00 in
01:42 65.1 °F 64.0 °F 30.05 in Calm     96% 0.00 in
01:47 65.1 °F 64.0 °F 30.04 in Calm     96% 0.00 in
01:52 65.1 °F 64.0 °F 30.04 in SSE 0.9 mph 1.0 mph 96% 0.00 in
01:57 65.1 °F 64.0 °F 30.04 in Calm     96% 0.00 in
02:02 65.3 °F 64.0 °F 30.04 in Calm   1.0 mph 96% 0.00 in
02:07 65.3 °F 64.0 °F 30.04 in Calm     96% 0.00 in
02:12 65.1 °F 64.0 °F 30.04 in Calm   1.0 mph 96% 0.00 in
02:17 65.1 °F 64.0 °F 30.04 in Calm     96% 0.00 in
02:23 65.1 °F 64.0 °F 30.04 in Calm     96% 0.00 in
02:28 64.9 °F 63.9 °F 30.04 in Calm   1.0 mph 96% 0.00 in
02:33 64.9 °F 63.9 °F 30.04 in Calm     96% 0.00 in
02:38 64.8 °F 63.7 °F 30.03 in Calm     96% 0.00 in
02:43 64.8 °F 63.7 °F 30.03 in Calm     96% 0.00 in
02:48 64.8 °F 63.9 °F 30.03 in Calm   1.0 mph 97% 0.00 in
02:53 64.9 °F 64.0 °F 30.03 in Calm     97% 0.00 in
02:58 64.9 °F 64.0 °F 30.03 in Calm     97% 0.00 in
03:03 64.9 °F 64.0 °F 30.03 in Calm     97% 0.00 in
03:08 64.8 °F 63.9 °F 30.03 in Calm     97% 0.00 in
03:13 64.8 °F 63.9 °F 30.03 in Calm     97% 0.00 in
03:18 64.6 °F 63.7 °F 30.03 in Calm     97% 0.00 in
03:23 64.6 °F 63.7 °F 30.02 in Calm     97% 0.00 in
03:27 64.6 °F 63.7 °F 30.02 in Calm     97% 0.00 in
03:32 64.4 °F 63.5 °F 30.02 in Calm     97% 0.00 in
03:37 64.4 °F 63.5 °F 30.02 in Calm     97% 0.00 in
03:47 64.2 °F 63.3 °F 30.02 in Calm     97% 0.00 in
03:49 64.2 °F 63.3 °F 30.02 in Calm     97% 0.00 in
03:54 64.0 °F 63.1 °F 30.02 in Calm     97% 0.00 in
03:59 64.0 °F 63.1 °F 30.02 in Calm     97% 0.00 in
04:04 63.9 °F 63.0 °F 30.01 in Calm     97% 0.00 in
04:10 63.9 °F 63.0 °F 30.01 in Calm     97% 0.00 in
04:15 63.9 °F 63.0 °F 30.01 in Calm     97% 0.00 in
04:20 63.7 °F 62.8 °F 30.01 in Calm     97% 0.00 in
04:25 63.5 °F 62.6 °F 30.01 in Calm     97% 0.00 in
04:30 63.5 °F 62.6 °F 30.01 in Calm     97% 0.00 in
04:35 63.3 °F 62.4 °F 30.01 in Calm     97% 0.00 in
04:40 63.3 °F 62.8 °F 30.01 in Calm     98% 0.00 in
04:46 63.3 °F 62.8 °F 30.01 in Calm     98% 0.00 in
04:51 63.5 °F 63.0 °F 30.01 in Calm     98% 0.00 in
04:56 63.5 °F 63.0 °F 30.01 in Calm   1.0 mph 98% 0.00 in
05:01 63.7 °F 63.1 °F 30.00 in Calm     98% 0.00 in
05:06 63.5 °F 63.0 °F 30.00 in Calm     98% 0.00 in
05:11 63.5 °F 63.0 °F 30.00 in Calm     98% 0.00 in
05:16 63.5 °F 63.0 °F 30.01 in Calm     98% 0.00 in
05:21 63.5 °F 63.0 °F 30.01 in Calm     98% 0.00 in
05:26 63.7 °F 63.1 °F 30.01 in Calm   1.0 mph 98% 0.00 in
05:31 63.7 °F 63.1 °F 30.01 in Calm     98% 0.00 in
05:34 63.7 °F 63.1 °F 30.01 in Calm     98% 0.00 in
05:39 63.5 °F 63.0 °F 30.01 in Calm     98% 0.00 in
05:44 63.5 °F 63.0 °F 30.01 in Calm     98% 0.00 in
05:49 63.3 °F 62.8 °F 30.01 in Calm     98% 0.00 in
05:54 63.3 °F 62.8 °F 30.01 in Calm     98% 0.00 in
05:59 63.3 °F 62.8 °F 30.01 in Calm     98% 0.00 in
06:04 63.1 °F 62.6 °F 30.01 in Calm     98% 0.00 in
06:09 63.1 °F 62.6 °F 30.01 in Calm     98% 0.00 in
06:14 63.3 °F 62.8 °F 30.01 in Calm     98% 0.00 in
06:19 63.1 °F 62.6 °F 30.01 in Calm     98% 0.00 in
06:24 63.1 °F 62.6 °F 30.01 in Calm     98% 0.00 in
06:29 63.0 °F 62.4 °F 30.01 in Calm     98% 0.00 in
06:34 63.1 °F 62.6 °F 30.01 in Calm   1.0 mph 98% 0.00 in
06:40 63.1 °F 62.6 °F 30.01 in Calm   1.0 mph 98% 0.00 in
06:45 63.1 °F 62.6 °F 30.01 in Calm   1.0 mph 98% 0.00 in
06:50 63.1 °F 62.6 °F 30.01 in Calm     98% 0.00 in
06:55 63.1 °F 62.6 °F 30.01 in Calm     98% 0.00 in
07:00 63.1 °F 62.6 °F 30.02 in Calm     98% 0.00 in
07:05 63.0 °F 62.4 °F 30.02 in Calm     98% 0.00 in
07:10 63.0 °F 62.4 °F 30.02 in Calm     98% 0.00 in
07:15 62.8 °F 62.2 °F 30.02 in Calm     98% 0.00 in
07:20 62.8 °F 62.2 °F 30.02 in Calm     98% 0.00 in
07:25 62.8 °F 62.2 °F 30.02 in Calm     98% 0.00 in
07:30 63.0 °F 62.4 °F 30.02 in Calm     98% 0.00 in
07:35 63.0 °F 62.4 °F 30.02 in Calm     98% 0.00 in
07:40 63.1 °F 62.6 °F 30.02 in Calm   1.0 mph 98% 0.00 in
07:45 63.1 °F 62.6 °F 30.02 in Calm     98% 0.00 in
07:50 63.3 °F 63.0 °F 30.03 in Calm     99% 0.00 in
07:55 63.7 °F 63.3 °F 30.03 in Calm     99% 0.00 in
08:09 63.9 °F 63.5 °F 30.02 in Calm     99% 0.00 in
08:14 64.0 °F 63.7 °F 30.02 in Calm     99% 0.00 in
08:15 64.0 °F 63.7 °F 30.02 in Calm     99% 0.00 in
08:20 64.2 °F 63.9 °F 30.02 in Calm     99% 0.00 in
08:25 64.6 °F 64.2 °F 30.02 in Calm     99% 0.00 in
08:27 64.6 °F 64.2 °F 30.02 in Calm     99% 0.00 in
08:32 65.5 °F 65.1 °F 30.02 in Calm     99% 0.00 in
08:37 66.0 °F 65.7 °F 30.01 in Calm     99% 0.00 in
08:42 66.7 °F 66.2 °F 30.02 in Calm     98% 0.00 in
08:47 66.7 °F 65.3 °F 30.01 in Calm     95% 0.00 in
08:52 66.6 °F 65.1 °F 30.02 in Calm     95% 0.00 in
08:57 66.7 °F 65.5 °F 30.02 in Calm     96% 0.00 in
09:02 67.6 °F 66.4 °F 30.02 in Calm     96% 0.00 in
09:07 68.9 °F 67.1 °F 30.02 in Calm     94% 0.00 in
09:12 70.0 °F 67.5 °F 30.02 in Calm     92% 0.00 in
09:20 71.2 °F 67.8 °F 30.01 in Calm   1.0 mph 89% 0.00 in
09:25 71.8 °F 68.0 °F 30.02 in Calm     88% 0.00 in
09:30 72.3 °F 68.2 °F 30.02 in Calm     87% 0.00 in
09:44 74.8 °F 69.3 °F 30.01 in Calm     83% 0.00 in
09:49 75.6 °F 70.0 °F 30.01 in Calm     83% 0.00 in
10:00 77.2 °F 70.5 °F 30.01 in ESE 0.9 mph 1.0 mph 80% 0.00 in
10:05 77.0 °F 70.3 °F 30.01 in Calm   1.0 mph 80% 0.00 in
10:10 76.8 °F 70.2 °F 30.01 in Calm     80% 0.00 in
10:15 77.4 °F 70.0 °F 30.01 in Calm   2.0 mph 78% 0.00 in
10:20 78.1 °F 71.8 °F 30.01 in ENE 0.9 mph 1.0 mph 81% 0.00 in
10:25 78.3 °F 71.2 °F 30.01 in ENE 0.9 mph 2.0 mph 79% 0.00 in
10:30 78.4 °F 71.8 °F 30.01 in Calm   1.0 mph 80% 0.00 in
10:35 78.6 °F 71.6 °F 30.01 in Calm   1.0 mph 79% 0.00 in
10:40 79.0 °F 72.3 °F 30.01 in ESE 0.9 mph 1.0 mph 80% 0.00 in
10:45 79.5 °F 71.6 °F 30.01 in Calm   2.0 mph 77% 0.00 in
10:50 80.2 °F 72.0 °F 30.01 in Calm   1.0 mph 76% 0.00 in
10:55 80.8 °F 71.2 °F 30.01 in Calm     73% 0.00 in
11:00 81.1 °F 71.2 °F 30.01 in East 2.0 mph 2.0 mph 72% 0.00 in
11:05 80.8 °F 71.2 °F 30.01 in Calm     73% 0.00 in
11:10 81.0 °F 72.0 °F 30.01 in East 2.0 mph 2.0 mph 74% 0.00 in
11:15 81.1 °F 70.9 °F 30.01 in ENE 0.9 mph 1.0 mph 71% 0.00 in
11:20 80.8 °F 71.8 °F 30.01 in Calm   3.0 mph 74% 0.00 in
11:25 80.1 °F 72.1 °F 30.01 in Calm   2.0 mph 77% 0.00 in
11:30 80.2 °F 72.3 °F 30.01 in Calm     77% 0.00 in
11:31 80.2 °F 71.6 °F 30.01 in Calm     75% 0.00 in
11:36 80.6 °F 71.6 °F 30.01 in Calm   1.0 mph 74% 0.00 in
11:41 80.4 °F 70.9 °F 30.01 in Calm   3.0 mph 73% 0.00 in
11:46 80.8 °F 70.9 °F 30.01 in Calm   1.0 mph 72% 0.00 in
11:51 81.1 °F 71.6 °F 30.01 in WNW 0.9 mph 1.0 mph 73% 0.00 in
11:56 81.7 °F 71.8 °F 30.01 in Calm   1.0 mph 72% 0.00 in
12:01 82.4 °F 71.2 °F 30.00 in Calm   1.0 mph 69% 0.00 in
12:06 82.6 °F 70.5 °F 30.00 in Calm   1.0 mph 67% 0.00 in
12:11 82.0 °F 70.3 °F 30.01 in Calm     68% 0.00 in
12:12 82.0 °F 69.6 °F 30.01 in Calm   1.0 mph 66% 0.00 in
12:17 82.0 °F 71.8 °F 30.01 in Calm   1.0 mph 71% 0.00 in
12:22 81.9 °F 69.8 °F 30.01 in Calm   1.0 mph 67% 0.00 in
12:28 81.7 °F 70.2 °F 30.01 in Calm     68% 0.00 in
12:33 81.7 °F 70.5 °F 30.01 in Calm     69% 0.00 in
12:38 81.3 °F 69.8 °F 30.00 in Calm   1.0 mph 68% 0.00 in
12:43 80.8 °F 70.2 °F 30.00 in Calm     70% 0.00 in
12:48 80.4 °F 69.3 °F 30.00 in Calm   1.0 mph 69% 0.00 in
12:53 80.4 °F 70.2 °F 30.00 in Calm   2.0 mph 71% 0.00 in
12:58 80.8 °F 71.2 °F 30.00 in Calm   1.0 mph 73% 0.00 in
13:03 81.0 °F 69.8 °F 30.00 in Calm     69% 0.00 in
13:08 81.1 °F 69.1 °F 29.99 in Calm   1.0 mph 67% 0.00 in
13:13 81.3 °F 71.1 °F 29.99 in ESE 2.9 mph 3.0 mph 71% 0.00 in
13:18 81.3 °F 70.2 °F 29.99 in Calm   1.0 mph 69% 0.00 in
13:23 81.7 °F 69.6 °F 29.99 in Calm   1.0 mph 67% 0.00 in
13:28 81.7 °F 70.2 °F 29.99 in East 2.0 mph 2.0 mph 68% 0.00 in
13:33 81.9 °F 70.3 °F 29.99 in Calm   2.0 mph 68% 0.00 in
13:38 82.0 °F 72.1 °F 29.99 in ENE 2.0 mph 2.0 mph 72% 0.00 in
13:43 82.0 °F 69.6 °F 29.99 in NNW 0.9 mph 1.0 mph 66% 0.00 in
13:48 81.7 °F 68.7 °F 29.99 in Calm   1.0 mph 65% 0.00 in
13:53 81.3 °F 68.9 °F 29.99 in Calm   2.0 mph 66% 0.00 in
13:58 81.1 °F 68.7 °F 29.98 in Calm   1.0 mph 66% 0.00 in
14:03 81.1 °F 69.1 °F 29.98 in Calm   1.0 mph 67% 0.00 in
14:08 81.1 °F 69.1 °F 29.98 in Calm   1.0 mph 67% 0.00 in
14:13 81.1 °F 68.7 °F 29.98 in Calm   1.0 mph 66% 0.00 in
14:23 81.0 °F 68.5 °F 29.98 in Calm   1.0 mph 66% 0.00 in
14:28 81.1 °F 68.2 °F 29.98 in Calm   1.0 mph 65% 0.00 in
14:33 81.1 °F 68.7 °F 29.98 in Calm   1.0 mph 66% 0.00 in
14:38 81.1 °F 70.0 °F 29.97 in East 4.0 mph 4.0 mph 69% 0.00 in
14:43 81.0 °F 68.5 °F 29.97 in Calm     66% 0.00 in
14:49 81.0 °F 68.9 °F 29.97 in SSE 0.9 mph 2.0 mph 67% 0.00 in
14:50 81.0 °F 69.4 °F 29.97 in Calm   2.0 mph 68% 0.00 in
14:55 80.8 °F 69.3 °F 29.97 in NW 0.9 mph 1.0 mph 68% 0.00 in
15:00 80.8 °F 68.7 °F 29.97 in ENE 0.9 mph 2.0 mph 67% 0.00 in
15:05 80.8 °F 69.3 °F 29.97 in Calm   1.0 mph 68% 0.00 in
15:10 80.8 °F 68.4 °F 29.97 in Calm   1.0 mph 66% 0.00 in
15:15 80.4 °F 68.5 °F 29.97 in Calm     67% 0.00 in
15:20 80.4 °F 67.6 °F 29.96 in East 0.9 mph 1.0 mph 65% 0.00 in
15:25 80.4 °F 68.0 °F 29.96 in East 2.0 mph 2.0 mph 66% 0.00 in
15:30 80.4 °F 68.9 °F 29.96 in Calm   2.0 mph 68% 0.00 in
15:35 80.2 °F 67.8 °F 29.96 in Calm   1.0 mph 66% 0.00 in
15:40 80.2 °F 69.1 °F 29.96 in Calm     69% 0.00 in
15:50 79.9 °F 68.0 °F 29.96 in Calm     67% 0.00 in
15:55 80.1 °F 68.5 °F 29.96 in ENE 2.9 mph 3.0 mph 68% 0.00 in
16:00 80.1 °F 68.9 °F 29.96 in Calm     69% 0.00 in
16:05 79.9 °F 66.6 °F 29.96 in Calm   2.0 mph 64% 0.00 in
16:10 79.7 °F 66.9 °F 29.95 in Calm   1.0 mph 65% 0.00 in
16:15 79.7 °F 67.8 °F 29.95 in Calm     67% 0.00 in
16:19 79.5 °F 67.6 °F 29.95 in Calm   2.0 mph 67% 0.00 in
16:24 79.5 °F 66.7 °F 29.95 in ESE 2.0 mph 2.0 mph 65% 0.00 in
16:29 79.3 °F 67.8 °F 29.95 in Calm   1.0 mph 68% 0.00 in
16:34 79.2 °F 66.4 °F 29.95 in Calm     65% 0.00 in
16:39 79.3 °F 66.6 °F 29.95 in Calm   1.0 mph 65% 0.00 in
16:44 79.5 °F 65.8 °F 29.95 in ESE 2.0 mph 3.0 mph 63% 0.00 in
16:49 79.9 °F 67.1 °F 29.94 in Calm     65% 0.00 in
16:54 79.9 °F 66.2 °F 29.94 in SE 0.9 mph 1.0 mph 63% 0.00 in
16:56 79.7 °F 66.0 °F 29.94 in ESE 0.9 mph 2.0 mph 63% 0.00 in
17:01 79.5 °F 66.7 °F 29.94 in Calm   3.0 mph 65% 0.00 in
17:06 79.5 °F 65.3 °F 29.94 in Calm     62% 0.00 in
17:11 79.5 °F 65.8 °F 29.93 in Calm     63% 0.00 in
17:16 79.5 °F 65.3 °F 29.93 in Calm     62% 0.00 in
17:21 79.3 °F 64.8 °F 29.93 in Calm     61% 0.00 in
17:26 79.2 °F 65.5 °F 29.93 in Calm   1.0 mph 63% 0.00 in
17:32 78.8 °F 64.8 °F 29.93 in Calm     62% 0.00 in
17:37 78.6 °F 65.5 °F 29.93 in Calm   1.0 mph 64% 0.00 in
17:42 78.4 °F 64.8 °F 29.93 in Calm     63% 0.00 in
17:47 78.3 °F 63.7 °F 29.93 in Calm   2.0 mph 61% 0.00 in
17:52 78.3 °F 65.1 °F 29.93 in Calm   1.0 mph 64% 0.00 in
17:57 78.3 °F 65.1 °F 29.93 in Calm     64% 0.00 in
18:02 78.3 °F 65.1 °F 29.93 in Calm     64% 0.00 in
18:07 78.3 °F 65.1 °F 29.93 in Calm     64% 0.00 in
18:12 78.3 °F 65.1 °F 29.93 in Calm     64% 0.00 in
18:17 78.1 °F 65.3 °F 29.93 in Calm     65% 0.00 in
18:22 77.9 °F 64.2 °F 29.92 in West 0.9 mph 4.0 mph 63% 0.00 in
18:27 77.5 °F 64.8 °F 29.92 in Calm   1.0 mph 65% 0.00 in
18:32 77.4 °F 64.8 °F 29.92 in Calm     65% 0.00 in
18:37 77.2 °F 64.9 °F 29.92 in Calm     66% 0.00 in
18:42 77.0 °F 65.1 °F 29.92 in Calm     67% 0.00 in
18:47 76.8 °F 65.5 °F 29.92 in Calm     68% 0.00 in
18:52 76.6 °F 64.9 °F 29.92 in Calm     67% 0.00 in
18:57 76.5 °F 64.8 °F 29.92 in Calm     67% 0.00 in
19:02 76.3 °F 64.6 °F 29.92 in East 0.9 mph 1.0 mph 67% 0.00 in
19:07 76.5 °F 65.1 °F 29.93 in Calm   2.0 mph 68% 0.00 in
19:12 76.5 °F 65.5 °F 29.93 in Calm     69% 0.00 in
19:17 76.3 °F 65.3 °F 29.93 in Calm     69% 0.00 in
19:22 76.3 °F 65.8 °F 29.93 in ESE 0.9 mph 3.0 mph 70% 0.00 in
19:27 76.3 °F 66.2 °F 29.93 in Calm     71% 0.00 in
19:32 75.9 °F 66.2 °F 29.93 in Calm     72% 0.00 in
19:37 75.7 °F 66.0 °F 29.93 in Calm     72% 0.00 in
19:42 75.7 °F 66.0 °F 29.94 in Calm     72% 0.00 in
19:43 75.7 °F 66.0 °F 29.94 in Calm     72% 0.00 in
19:48 75.6 °F 66.4 °F 29.94 in Calm     73% 0.00 in
19:53 75.4 °F 66.2 °F 29.93 in Calm     73% 0.00 in
19:58 75.0 °F 65.3 °F 29.93 in Calm     72% 0.00 in
20:03 75.0 °F 66.2 °F 29.94 in Calm     74% 0.00 in
20:08 74.8 °F 66.4 °F 29.94 in Calm     75% 0.00 in
20:13 74.5 °F 66.4 °F 29.94 in Calm     76% 0.00 in
20:18 74.1 °F 66.4 °F 29.94 in Calm     77% 0.00 in
20:23 73.8 °F 66.0 °F 29.95 in Calm     77% 0.00 in
20:28 73.2 °F 66.0 °F 29.94 in Calm     78% 0.00 in
20:33 72.9 °F 66.0 °F 29.95 in Calm     79% 0.00 in
20:38 72.5 °F 66.0 °F 29.95 in Calm     80% 0.00 in
20:43 72.1 °F 65.7 °F 29.95 in Calm     80% 0.00 in
20:48 71.8 °F 66.0 °F 29.95 in Calm     82% 0.00 in
20:53 71.4 °F 66.0 °F 29.95 in Calm     83% 0.00 in
20:58 71.1 °F 66.0 °F 29.95 in Calm     84% 0.00 in
21:03 70.5 °F 65.8 °F 29.95 in Calm     85% 0.00 in
21:08 70.3 °F 65.3 °F 29.95 in Calm     84% 0.00 in
21:14 70.2 °F 65.5 °F 29.95 in Calm     85% 0.00 in
21:19 69.8 °F 65.5 °F 29.96 in Calm     86% 0.00 in
21:24 69.6 °F 65.3 °F 29.96 in Calm     86% 0.00 in
21:29 69.4 °F 65.5 °F 29.96 in Calm     87% 0.00 in
21:34 69.1 °F 65.3 °F 29.96 in Calm   1.0 mph 88% 0.00 in
21:39 68.7 °F 64.8 °F 29.96 in Calm     87% 0.00 in
21:44 68.7 °F 64.8 °F 29.96 in Calm     87% 0.00 in
21:49 68.7 °F 64.8 °F 29.96 in Calm     87% 0.00 in
21:54 68.5 °F 64.6 °F 29.96 in Calm     87% 0.00 in
21:59 68.5 °F 64.6 °F 29.97 in Calm     87% 0.00 in
22:04 68.5 °F 64.6 °F 29.97 in Calm     87% 0.00 in
22:09 68.4 °F 64.4 °F 29.97 in Calm     87% 0.00 in
22:14 68.2 °F 64.4 °F 29.97 in Calm     88% 0.00 in
22:19 67.8 °F 64.4 °F 29.97 in Calm     89% 0.00 in
22:24 67.5 °F 64.4 °F 29.98 in Calm     90% 0.00 in
22:29 67.3 °F 64.2 °F 29.98 in Calm     90% 0.00 in
22:34 67.1 °F 64.0 °F 29.98 in Calm     90% 0.00 in
22:39 66.7 °F 64.0 °F 29.98 in Calm     91% 0.00 in
22:44 66.6 °F 63.9 °F 29.98 in Calm     91% 0.00 in
22:49 66.4 °F 63.7 °F 29.98 in Calm     91% 0.00 in
22:54 66.2 °F 63.9 °F 29.98 in Calm     92% 0.00 in
22:59 66.0 °F 63.9 °F 29.98 in Calm     93% 0.00 in
WheeWeather.com
Compliments of Weather Underground - 2.5 mb